sensor_id;sensor_type;location;lat;lon;timestamp;P1;durP1;ratioP1;P2;durP2;ratioP2
39218;SDS011;24934;52.752;6.964;2024-03-02T00:02:12;11.63;;;10.57;;
39218;SDS011;24934;52.752;6.964;2024-03-02T00:04:38;11.77;;;10.77;;
39218;SDS011;24934;52.752;6.964;2024-03-02T00:07:04;12.27;;;11.17;;
39218;SDS011;24934;52.752;6.964;2024-03-02T00:09:30;12.50;;;11.30;;
39218;SDS011;24934;52.752;6.964;2024-03-02T00:11:56;12.17;;;11.07;;
39218;SDS011;24934;52.752;6.964;2024-03-02T00:14:22;12.17;;;11.07;;
39218;SDS011;24934;52.752;6.964;2024-03-02T00:16:49;12.83;;;11.60;;
39218;SDS011;24934;52.752;6.964;2024-03-02T00:19:16;12.27;;;11.10;;
39218;SDS011;24934;52.752;6.964;2024-03-02T00:21:42;12.90;;;11.80;;
39218;SDS011;24934;52.752;6.964;2024-03-02T00:24:21;13.03;;;11.93;;
39218;SDS011;24934;52.752;6.964;2024-03-02T00:26:47;13.00;;;11.80;;
39218;SDS011;24934;52.752;6.964;2024-03-02T00:29:15;12.63;;;11.33;;
39218;SDS011;24934;52.752;6.964;2024-03-02T00:31:41;12.60;;;11.40;;
39218;SDS011;24934;52.752;6.964;2024-03-02T00:34:07;12.80;;;11.57;;
39218;SDS011;24934;52.752;6.964;2024-03-02T00:36:35;12.40;;;11.30;;
39218;SDS011;24934;52.752;6.964;2024-03-02T00:39:01;12.63;;;11.43;;
39218;SDS011;24934;52.752;6.964;2024-03-02T00:41:29;12.33;;;11.20;;
39218;SDS011;24934;52.752;6.964;2024-03-02T00:43:59;12.50;;;11.50;;
39218;SDS011;24934;52.752;6.964;2024-03-02T00:46:27;12.33;;;11.10;;
39218;SDS011;24934;52.752;6.964;2024-03-02T00:48:55;12.47;;;11.47;;
39218;SDS011;24934;52.752;6.964;2024-03-02T00:51:23;12.27;;;11.10;;
39218;SDS011;24934;52.752;6.964;2024-03-02T00:53:50;13.27;;;11.97;;
39218;SDS011;24934;52.752;6.964;2024-03-02T00:56:25;12.33;;;11.23;;
39218;SDS011;24934;52.752;6.964;2024-03-02T00:58:52;13.13;;;11.83;;
39218;SDS011;24934;52.752;6.964;2024-03-02T01:01:18;12.30;;;11.20;;
39218;SDS011;24934;52.752;6.964;2024-03-02T01:03:44;12.70;;;11.60;;
39218;SDS011;24934;52.752;6.964;2024-03-02T01:06:11;13.47;;;12.37;;
39218;SDS011;24934;52.752;6.964;2024-03-02T01:08:38;13.53;;;12.40;;
39218;SDS011;24934;52.752;6.964;2024-03-02T01:11:04;13.23;;;12.03;;
39218;SDS011;24934;52.752;6.964;2024-03-02T01:13:30;13.50;;;12.33;;
39218;SDS011;24934;52.752;6.964;2024-03-02T01:15:56;13.33;;;12.23;;
39218;SDS011;24934;52.752;6.964;2024-03-02T01:18:23;13.80;;;12.60;;
39218;SDS011;24934;52.752;6.964;2024-03-02T01:20:49;13.30;;;12.10;;
39218;SDS011;24934;52.752;6.964;2024-03-02T01:23:19;13.33;;;12.13;;
39218;SDS011;24934;52.752;6.964;2024-03-02T01:25:49;13.20;;;12.10;;
39218;SDS011;24934;52.752;6.964;2024-03-02T01:28:15;12.83;;;11.73;;
39218;SDS011;24934;52.752;6.964;2024-03-02T01:30:41;12.53;;;11.53;;
39218;SDS011;24934;52.752;6.964;2024-03-02T01:33:07;13.10;;;12.00;;
39218;SDS011;24934;52.752;6.964;2024-03-02T01:35:33;13.10;;;12.00;;
39218;SDS011;24934;52.752;6.964;2024-03-02T01:38:00;13.20;;;12.10;;
39218;SDS011;24934;52.752;6.964;2024-03-02T01:40:26;12.20;;;11.20;;
39218;SDS011;24934;52.752;6.964;2024-03-02T01:42:52;12.77;;;11.67;;
39218;SDS011;24934;52.752;6.964;2024-03-02T01:45:19;12.57;;;11.47;;
39218;SDS011;24934;52.752;6.964;2024-03-02T01:47:45;12.63;;;11.63;;
39218;SDS011;24934;52.752;6.964;2024-03-02T01:50:11;13.03;;;11.87;;
39218;SDS011;24934;52.752;6.964;2024-03-02T01:52:38;12.63;;;11.33;;
39218;SDS011;24934;52.752;6.964;2024-03-02T01:55:04;13.03;;;11.93;;
39218;SDS011;24934;52.752;6.964;2024-03-02T01:57:34;12.67;;;11.67;;
39218;SDS011;24934;52.752;6.964;2024-03-02T02:00:00;13.00;;;11.90;;
39218;SDS011;24934;52.752;6.964;2024-03-02T02:02:26;13.10;;;11.90;;
39218;SDS011;24934;52.752;6.964;2024-03-02T02:04:52;13.20;;;12.03;;
39218;SDS011;24934;52.752;6.964;2024-03-02T02:07:18;12.83;;;11.83;;
39218;SDS011;24934;52.752;6.964;2024-03-02T02:09:47;12.50;;;11.50;;
39218;SDS011;24934;52.752;6.964;2024-03-02T02:12:13;12.40;;;11.33;;
39218;SDS011;24934;52.752;6.964;2024-03-02T02:14:46;12.10;;;11.20;;
39218;SDS011;24934;52.752;6.964;2024-03-02T02:17:13;12.70;;;11.60;;
39218;SDS011;24934;52.752;6.964;2024-03-02T02:19:40;12.07;;;11.07;;
39218;SDS011;24934;52.752;6.964;2024-03-02T02:22:06;11.90;;;11.00;;
39218;SDS011;24934;52.752;6.964;2024-03-02T02:24:32;12.20;;;11.20;;
39218;SDS011;24934;52.752;6.964;2024-03-02T02:26:58;12.23;;;11.33;;
39218;SDS011;24934;52.752;6.964;2024-03-02T02:29:24;13.30;;;12.27;;
39218;SDS011;24934;52.752;6.964;2024-03-02T02:31:50;12.77;;;11.57;;
39218;SDS011;24934;52.752;6.964;2024-03-02T02:34:16;12.13;;;11.13;;
39218;SDS011;24934;52.752;6.964;2024-03-02T02:36:42;12.17;;;11.10;;
39218;SDS011;24934;52.752;6.964;2024-03-02T02:39:10;13.00;;;11.80;;
39218;SDS011;24934;52.752;6.964;2024-03-02T02:41:37;12.20;;;11.00;;
39218;SDS011;24934;52.752;6.964;2024-03-02T02:44:03;12.33;;;11.23;;
39218;SDS011;24934;52.752;6.964;2024-03-02T02:46:29;12.40;;;11.40;;
39218;SDS011;24934;52.752;6.964;2024-03-02T02:48:55;12.50;;;11.60;;
39218;SDS011;24934;52.752;6.964;2024-03-02T02:51:21;12.80;;;11.70;;
39218;SDS011;24934;52.752;6.964;2024-03-02T02:53:48;12.33;;;11.37;;
39218;SDS011;24934;52.752;6.964;2024-03-02T02:56:14;12.93;;;11.80;;
39218;SDS011;24934;52.752;6.964;2024-03-02T02:58:40;12.13;;;11.23;;
39218;SDS011;24934;52.752;6.964;2024-03-02T03:01:06;12.40;;;11.40;;
39218;SDS011;24934;52.752;6.964;2024-03-02T03:03:33;12.50;;;11.50;;
39218;SDS011;24934;52.752;6.964;2024-03-02T03:05:59;12.73;;;11.73;;
39218;SDS011;24934;52.752;6.964;2024-03-02T03:08:25;12.80;;;11.70;;
39218;SDS011;24934;52.752;6.964;2024-03-02T03:10:51;12.20;;;11.20;;
39218;SDS011;24934;52.752;6.964;2024-03-02T03:13:17;12.60;;;11.47;;
39218;SDS011;24934;52.752;6.964;2024-03-02T03:15:43;12.40;;;11.20;;
39218;SDS011;24934;52.752;6.964;2024-03-02T03:18:09;12.17;;;11.03;;
39218;SDS011;24934;52.752;6.964;2024-03-02T03:20:38;12.27;;;11.27;;
39218;SDS011;24934;52.752;6.964;2024-03-02T03:23:04;12.53;;;11.50;;
39218;SDS011;24934;52.752;6.964;2024-03-02T03:25:30;12.47;;;11.37;;
39218;SDS011;24934;52.752;6.964;2024-03-02T03:27:56;12.73;;;11.67;;
39218;SDS011;24934;52.752;6.964;2024-03-02T03:30:22;12.20;;;11.20;;
39218;SDS011;24934;52.752;6.964;2024-03-02T03:32:48;12.10;;;11.00;;
39218;SDS011;24934;52.752;6.964;2024-03-02T03:35:14;12.13;;;11.13;;
39218;SDS011;24934;52.752;6.964;2024-03-02T03:37:41;12.17;;;11.23;;
39218;SDS011;24934;52.752;6.964;2024-03-02T03:40:07;12.30;;;11.30;;
39218;SDS011;24934;52.752;6.964;2024-03-02T03:42:36;12.10;;;11.13;;
39218;SDS011;24934;52.752;6.964;2024-03-02T03:45:03;12.43;;;11.33;;
39218;SDS011;24934;52.752;6.964;2024-03-02T03:47:30;12.17;;;11.17;;
39218;SDS011;24934;52.752;6.964;2024-03-02T03:49:56;13.10;;;11.80;;
39218;SDS011;24934;52.752;6.964;2024-03-02T03:52:22;12.20;;;11.30;;
39218;SDS011;24934;52.752;6.964;2024-03-02T03:54:48;12.63;;;11.50;;
39218;SDS011;24934;52.752;6.964;2024-03-02T03:57:15;12.63;;;11.43;;
39218;SDS011;24934;52.752;6.964;2024-03-02T03:59:41;10.83;;;9.90;;
39218;SDS011;24934;52.752;6.964;2024-03-02T04:02:07;11.00;;;9.97;;
39218;SDS011;24934;52.752;6.964;2024-03-02T04:04:33;11.00;;;10.00;;
39218;SDS011;24934;52.752;6.964;2024-03-02T04:06:59;10.97;;;9.70;;
39218;SDS011;24934;52.752;6.964;2024-03-02T04:09:25;11.20;;;10.10;;
39218;SDS011;24934;52.752;6.964;2024-03-02T04:11:52;10.83;;;9.93;;
39218;SDS011;24934;52.752;6.964;2024-03-02T04:14:19;11.10;;;10.10;;
39218;SDS011;24934;52.752;6.964;2024-03-02T04:16:45;10.27;;;9.37;;
39218;SDS011;24934;52.752;6.964;2024-03-02T04:19:11;10.33;;;9.33;;
39218;SDS011;24934;52.752;6.964;2024-03-02T04:21:37;10.23;;;9.20;;
39218;SDS011;24934;52.752;6.964;2024-03-02T04:24:03;10.10;;;9.20;;
39218;SDS011;24934;52.752;6.964;2024-03-02T04:26:29;10.63;;;9.63;;
39218;SDS011;24934;52.752;6.964;2024-03-02T04:28:55;10.17;;;9.37;;
39218;SDS011;24934;52.752;6.964;2024-03-02T04:31:21;9.87;;;9.07;;
39218;SDS011;24934;52.752;6.964;2024-03-02T04:33:47;12.13;;;9.47;;
39218;SDS011;24934;52.752;6.964;2024-03-02T04:36:13;10.13;;;9.20;;
39218;SDS011;24934;52.752;6.964;2024-03-02T04:38:39;10.43;;;9.30;;
39218;SDS011;24934;52.752;6.964;2024-03-02T04:41:05;9.87;;;8.97;;
39218;SDS011;24934;52.752;6.964;2024-03-02T04:43:31;9.70;;;8.80;;
39218;SDS011;24934;52.752;6.964;2024-03-02T04:46:00;10.30;;;9.17;;
39218;SDS011;24934;52.752;6.964;2024-03-02T04:48:26;10.47;;;9.47;;
39218;SDS011;24934;52.752;6.964;2024-03-02T04:50:52;9.60;;;8.80;;
39218;SDS011;24934;52.752;6.964;2024-03-02T04:53:18;10.67;;;9.60;;
39218;SDS011;24934;52.752;6.964;2024-03-02T04:55:45;10.60;;;9.63;;
39218;SDS011;24934;52.752;6.964;2024-03-02T04:58:31;9.73;;;8.90;;
39218;SDS011;24934;52.752;6.964;2024-03-02T05:00:57;9.47;;;8.67;;
39218;SDS011;24934;52.752;6.964;2024-03-02T05:03:23;10.03;;;8.97;;
39218;SDS011;24934;52.752;6.964;2024-03-02T05:05:49;9.80;;;8.80;;
39218;SDS011;24934;52.752;6.964;2024-03-02T05:08:15;9.43;;;8.60;;
39218;SDS011;24934;52.752;6.964;2024-03-02T05:10:42;10.20;;;9.30;;
39218;SDS011;24934;52.752;6.964;2024-03-02T05:13:08;10.93;;;9.00;;
39218;SDS011;24934;52.752;6.964;2024-03-02T05:15:34;9.27;;;8.47;;
39218;SDS011;24934;52.752;6.964;2024-03-02T05:18:00;9.67;;;8.77;;
39218;SDS011;24934;52.752;6.964;2024-03-02T05:20:27;9.87;;;8.60;;
39218;SDS011;24934;52.752;6.964;2024-03-02T05:22:53;10.03;;;9.10;;
39218;SDS011;24934;52.752;6.964;2024-03-02T05:25:20;9.30;;;8.40;;
39218;SDS011;24934;52.752;6.964;2024-03-02T05:27:46;9.97;;;8.83;;
39218;SDS011;24934;52.752;6.964;2024-03-02T05:30:12;9.57;;;8.57;;
39218;SDS011;24934;52.752;6.964;2024-03-02T05:32:38;10.10;;;9.10;;
39218;SDS011;24934;52.752;6.964;2024-03-02T05:35:04;9.63;;;8.73;;
39218;SDS011;24934;52.752;6.964;2024-03-02T05:37:30;9.83;;;8.83;;
39218;SDS011;24934;52.752;6.964;2024-03-02T05:39:56;9.43;;;8.53;;
39218;SDS011;24934;52.752;6.964;2024-03-02T05:42:24;9.67;;;8.77;;
39218;SDS011;24934;52.752;6.964;2024-03-02T05:44:50;9.57;;;8.70;;
39218;SDS011;24934;52.752;6.964;2024-03-02T05:47:16;9.47;;;8.57;;
39218;SDS011;24934;52.752;6.964;2024-03-02T05:49:42;10.80;;;8.40;;
39218;SDS011;24934;52.752;6.964;2024-03-02T05:52:08;9.20;;;8.40;;
39218;SDS011;24934;52.752;6.964;2024-03-02T05:54:34;9.43;;;8.53;;
39218;SDS011;24934;52.752;6.964;2024-03-02T05:57:00;9.17;;;8.27;;
39218;SDS011;24934;52.752;6.964;2024-03-02T05:59:41;10.50;;;9.50;;
39218;SDS011;24934;52.752;6.964;2024-03-02T06:02:08;10.80;;;9.90;;
39218;SDS011;24934;52.752;6.964;2024-03-02T06:04:34;11.70;;;10.70;;
39218;SDS011;24934;52.752;6.964;2024-03-02T06:07:00;12.03;;;10.73;;
39218;SDS011;24934;52.752;6.964;2024-03-02T06:09:26;11.10;;;10.10;;
39218;SDS011;24934;52.752;6.964;2024-03-02T06:11:52;11.90;;;10.90;;
39218;SDS011;24934;52.752;6.964;2024-03-02T06:14:18;12.73;;;11.63;;
39218;SDS011;24934;52.752;6.964;2024-03-02T06:16:44;12.83;;;11.73;;
39218;SDS011;24934;52.752;6.964;2024-03-02T06:19:10;13.37;;;11.83;;
39218;SDS011;24934;52.752;6.964;2024-03-02T06:21:36;12.33;;;11.13;;
39218;SDS011;24934;52.752;6.964;2024-03-02T06:24:02;13.07;;;11.47;;
39218;SDS011;24934;52.752;6.964;2024-03-02T06:26:28;13.73;;;12.03;;
39218;SDS011;24934;52.752;6.964;2024-03-02T06:28:55;12.30;;;11.20;;
39218;SDS011;24934;52.752;6.964;2024-03-02T06:31:21;15.63;;;12.07;;
39218;SDS011;24934;52.752;6.964;2024-03-02T06:33:47;12.57;;;11.37;;
39218;SDS011;24934;52.752;6.964;2024-03-02T06:36:13;12.83;;;11.50;;
39218;SDS011;24934;52.752;6.964;2024-03-02T06:38:40;12.70;;;11.50;;
39218;SDS011;24934;52.752;6.964;2024-03-02T06:41:06;12.67;;;11.47;;
39218;SDS011;24934;52.752;6.964;2024-03-02T06:43:32;12.67;;;11.47;;
39218;SDS011;24934;52.752;6.964;2024-03-02T06:45:58;12.57;;;11.47;;
39218;SDS011;24934;52.752;6.964;2024-03-02T06:48:24;12.53;;;11.33;;
39218;SDS011;24934;52.752;6.964;2024-03-02T06:50:50;12.37;;;11.27;;
39218;SDS011;24934;52.752;6.964;2024-03-02T06:53:17;12.50;;;11.40;;
39218;SDS011;24934;52.752;6.964;2024-03-02T06:55:44;13.27;;;12.07;;
39218;SDS011;24934;52.752;6.964;2024-03-02T06:58:11;12.53;;;11.30;;
39218;SDS011;24934;52.752;6.964;2024-03-02T07:00:37;11.90;;;10.90;;
39218;SDS011;24934;52.752;6.964;2024-03-02T07:03:03;12.50;;;11.30;;
39218;SDS011;24934;52.752;6.964;2024-03-02T07:05:29;12.43;;;11.23;;
39218;SDS011;24934;52.752;6.964;2024-03-02T07:07:55;12.20;;;11.20;;
39218;SDS011;24934;52.752;6.964;2024-03-02T07:10:21;13.30;;;11.90;;
39218;SDS011;24934;52.752;6.964;2024-03-02T07:12:47;12.30;;;11.20;;
39218;SDS011;24934;52.752;6.964;2024-03-02T07:15:13;13.00;;;11.80;;
39218;SDS011;24934;52.752;6.964;2024-03-02T07:17:51;12.67;;;11.43;;
39218;SDS011;24934;52.752;6.964;2024-03-02T07:20:17;12.73;;;11.47;;
39218;SDS011;24934;52.752;6.964;2024-03-02T07:22:43;12.37;;;11.07;;
39218;SDS011;24934;52.752;6.964;2024-03-02T07:25:09;12.83;;;11.67;;
39218;SDS011;24934;52.752;6.964;2024-03-02T07:27:35;12.17;;;11.07;;
39218;SDS011;24934;52.752;6.964;2024-03-02T07:30:08;12.27;;;11.27;;
39218;SDS011;24934;52.752;6.964;2024-03-02T07:32:34;13.00;;;11.70;;
39218;SDS011;24934;52.752;6.964;2024-03-02T07:35:03;13.00;;;11.83;;
39218;SDS011;24934;52.752;6.964;2024-03-02T07:37:32;14.03;;;11.30;;
39218;SDS011;24934;52.752;6.964;2024-03-02T07:39:58;12.83;;;11.53;;
39218;SDS011;24934;52.752;6.964;2024-03-02T07:42:24;12.33;;;11.13;;
39218;SDS011;24934;52.752;6.964;2024-03-02T07:44:50;12.60;;;11.40;;
39218;SDS011;24934;52.752;6.964;2024-03-02T07:47:16;12.50;;;11.37;;
39218;SDS011;24934;52.752;6.964;2024-03-02T07:49:48;11.77;;;10.70;;
39218;SDS011;24934;52.752;6.964;2024-03-02T07:52:17;12.53;;;11.33;;
39218;SDS011;24934;52.752;6.964;2024-03-02T07:54:43;12.33;;;11.13;;
39218;SDS011;24934;52.752;6.964;2024-03-02T07:57:09;12.40;;;11.37;;
39218;SDS011;24934;52.752;6.964;2024-03-02T07:59:35;12.60;;;11.27;;
39218;SDS011;24934;52.752;6.964;2024-03-02T08:02:02;12.53;;;11.33;;
39218;SDS011;24934;52.752;6.964;2024-03-02T08:04:28;12.07;;;10.97;;
39218;SDS011;24934;52.752;6.964;2024-03-02T08:06:54;12.50;;;11.40;;
39218;SDS011;24934;52.752;6.964;2024-03-02T08:09:20;12.60;;;11.40;;
39218;SDS011;24934;52.752;6.964;2024-03-02T08:11:46;11.93;;;11.00;;
39218;SDS011;24934;52.752;6.964;2024-03-02T08:14:12;12.80;;;11.50;;
39218;SDS011;24934;52.752;6.964;2024-03-02T08:16:38;12.47;;;11.37;;
39218;SDS011;24934;52.752;6.964;2024-03-02T08:19:04;12.47;;;10.90;;
39218;SDS011;24934;52.752;6.964;2024-03-02T08:21:30;12.40;;;11.30;;
39218;SDS011;24934;52.752;6.964;2024-03-02T08:23:57;11.50;;;10.57;;
39218;SDS011;24934;52.752;6.964;2024-03-02T08:26:29;13.00;;;11.53;;
39218;SDS011;24934;52.752;6.964;2024-03-02T08:28:56;12.50;;;11.40;;
39218;SDS011;24934;52.752;6.964;2024-03-02T08:31:22;11.60;;;10.60;;
39218;SDS011;24934;52.752;6.964;2024-03-02T08:33:48;12.57;;;11.43;;
39218;SDS011;24934;52.752;6.964;2024-03-02T08:36:14;12.80;;;11.50;;
39218;SDS011;24934;52.752;6.964;2024-03-02T08:38:41;12.93;;;11.77;;
39218;SDS011;24934;52.752;6.964;2024-03-02T08:41:07;14.93;;;11.93;;
39218;SDS011;24934;52.752;6.964;2024-03-02T08:43:33;16.30;;;11.33;;
39218;SDS011;24934;52.752;6.964;2024-03-02T08:45:59;11.67;;;10.67;;
39218;SDS011;24934;52.752;6.964;2024-03-02T08:48:25;11.47;;;10.37;;
39218;SDS011;24934;52.752;6.964;2024-03-02T08:50:51;11.50;;;10.60;;
39218;SDS011;24934;52.752;6.964;2024-03-02T08:53:17;12.55;;;11.30;;
39218;SDS011;24934;52.752;6.964;2024-03-02T08:55:46;12.77;;;11.68;;
39218;SDS011;24934;52.752;6.964;2024-03-02T08:58:12;12.27;;;11.20;;
39218;SDS011;24934;52.752;6.964;2024-03-02T09:00:39;12.82;;;10.10;;
39218;SDS011;24934;52.752;6.964;2024-03-02T09:03:05;11.60;;;10.60;;
39218;SDS011;24934;52.752;6.964;2024-03-02T09:05:31;10.80;;;9.90;;
39218;SDS011;24934;52.752;6.964;2024-03-02T09:07:57;11.98;;;10.98;;
39218;SDS011;24934;52.752;6.964;2024-03-02T09:10:23;12.48;;;11.38;;
39218;SDS011;24934;52.752;6.964;2024-03-02T09:12:49;11.90;;;10.90;;
39218;SDS011;24934;52.752;6.964;2024-03-02T09:15:15;12.52;;;11.32;;
39218;SDS011;24934;52.752;6.964;2024-03-02T09:17:41;13.73;;;12.20;;
39218;SDS011;24934;52.752;6.964;2024-03-02T09:20:07;13.30;;;12.20;;
39218;SDS011;24934;52.752;6.964;2024-03-02T09:22:33;13.20;;;12.20;;
39218;SDS011;24934;52.752;6.964;2024-03-02T09:24:59;13.15;;;12.05;;
39218;SDS011;24934;52.752;6.964;2024-03-02T09:27:25;14.02;;;12.73;;
39218;SDS011;24934;52.752;6.964;2024-03-02T09:29:51;13.23;;;12.10;;
39218;SDS011;24934;52.752;6.964;2024-03-02T09:32:17;14.68;;;13.25;;
39218;SDS011;24934;52.752;6.964;2024-03-02T09:34:43;14.20;;;12.77;;
39218;SDS011;24934;52.752;6.964;2024-03-02T09:37:09;13.93;;;12.60;;
39218;SDS011;24934;52.752;6.964;2024-03-02T09:39:36;13.60;;;12.50;;
39218;SDS011;24934;52.752;6.964;2024-03-02T09:42:02;14.27;;;12.98;;
39218;SDS011;24934;52.752;6.964;2024-03-02T09:44:29;14.23;;;12.90;;
39218;SDS011;24934;52.752;6.964;2024-03-02T09:46:55;16.45;;;13.32;;
39218;SDS011;24934;52.752;6.964;2024-03-02T09:49:21;13.95;;;12.55;;
39218;SDS011;24934;52.752;6.964;2024-03-02T09:51:48;15.23;;;13.63;;
39218;SDS011;24934;52.752;6.964;2024-03-02T09:54:17;15.18;;;13.80;;
39218;SDS011;24934;52.752;6.964;2024-03-02T09:56:44;15.45;;;14.05;;
39218;SDS011;24934;52.752;6.964;2024-03-02T09:59:10;13.43;;;12.20;;
39218;SDS011;24934;52.752;6.964;2024-03-02T10:01:37;12.30;;;11.18;;
39218;SDS011;24934;52.752;6.964;2024-03-02T10:04:03;13.00;;;12.02;;
39218;SDS011;24934;52.752;6.964;2024-03-02T10:06:30;15.40;;;14.02;;
39218;SDS011;24934;52.752;6.964;2024-03-02T10:08:56;13.57;;;12.50;;
39218;SDS011;24934;52.752;6.964;2024-03-02T10:11:26;14.32;;;12.93;;
39218;SDS011;24934;52.752;6.964;2024-03-02T10:14:09;13.25;;;12.20;;
39218;SDS011;24934;52.752;6.964;2024-03-02T10:16:36;13.50;;;12.40;;
39218;SDS011;24934;52.752;6.964;2024-03-02T10:19:15;13.45;;;12.35;;
39218;SDS011;24934;52.752;6.964;2024-03-02T10:21:48;13.43;;;12.32;;
39218;SDS011;24934;52.752;6.964;2024-03-02T10:24:17;14.00;;;12.60;;
39218;SDS011;24934;52.752;6.964;2024-03-02T10:26:43;13.35;;;12.25;;
39218;SDS011;24934;52.752;6.964;2024-03-02T10:29:09;14.05;;;12.80;;
39218;SDS011;24934;52.752;6.964;2024-03-02T10:31:42;14.13;;;12.93;;
39218;SDS011;24934;52.752;6.964;2024-03-02T10:34:09;14.88;;;13.43;;
39218;SDS011;24934;52.752;6.964;2024-03-02T10:36:35;13.30;;;12.20;;
39218;SDS011;24934;52.752;6.964;2024-03-02T10:39:02;13.52;;;12.10;;
39218;SDS011;24934;52.752;6.964;2024-03-02T10:41:29;14.07;;;12.80;;
39218;SDS011;24934;52.752;6.964;2024-03-02T10:43:56;14.45;;;13.25;;
39218;SDS011;24934;52.752;6.964;2024-03-02T10:46:28;14.23;;;12.65;;
39218;SDS011;24934;52.752;6.964;2024-03-02T10:48:55;13.30;;;12.30;;
39218;SDS011;24934;52.752;6.964;2024-03-02T10:51:23;12.70;;;11.40;;
39218;SDS011;24934;52.752;6.964;2024-03-02T10:53:49;14.90;;;13.60;;
39218;SDS011;24934;52.752;6.964;2024-03-02T10:56:16;13.55;;;12.20;;
39218;SDS011;24934;52.752;6.964;2024-03-02T10:58:47;12.35;;;11.27;;
39218;SDS011;24934;52.752;6.964;2024-03-02T11:01:16;12.73;;;11.63;;
39218;SDS011;24934;52.752;6.964;2024-03-02T11:03:42;13.23;;;12.13;;
39218;SDS011;24934;52.752;6.964;2024-03-02T11:06:12;12.57;;;11.57;;
39218;SDS011;24934;52.752;6.964;2024-03-02T11:08:39;11.00;;;9.98;;
39218;SDS011;24934;52.752;6.964;2024-03-02T11:11:06;12.25;;;11.20;;
39218;SDS011;24934;52.752;6.964;2024-03-02T11:13:34;12.50;;;11.30;;
39218;SDS011;24934;52.752;6.964;2024-03-02T11:16:09;13.40;;;12.00;;
39218;SDS011;24934;52.752;6.964;2024-03-02T11:18:37;13.60;;;12.50;;
39218;SDS011;24934;52.752;6.964;2024-03-02T11:21:04;13.23;;;11.90;;
39218;SDS011;24934;52.752;6.964;2024-03-02T11:23:34;14.75;;;13.27;;
39218;SDS011;24934;52.752;6.964;2024-03-02T11:28:45;11.48;;;10.48;;
39218;SDS011;24934;52.752;6.964;2024-03-02T11:31:11;13.32;;;12.13;;
39218;SDS011;24934;52.752;6.964;2024-03-02T11:33:37;13.52;;;12.52;;
39218;SDS011;24934;52.752;6.964;2024-03-02T11:36:03;13.90;;;12.70;;
39218;SDS011;24934;52.752;6.964;2024-03-02T11:38:32;13.57;;;12.38;;
39218;SDS011;24934;52.752;6.964;2024-03-02T11:41:02;13.68;;;12.50;;
39218;SDS011;24934;52.752;6.964;2024-03-02T11:43:28;14.43;;;13.13;;
39218;SDS011;24934;52.752;6.964;2024-03-02T11:45:58;13.35;;;12.30;;
39218;SDS011;24934;52.752;6.964;2024-03-02T11:48:24;14.38;;;13.25;;
39218;SDS011;24934;52.752;6.964;2024-03-02T11:50:51;13.90;;;12.60;;
39218;SDS011;24934;52.752;6.964;2024-03-02T11:53:17;18.95;;;15.43;;
39218;SDS011;24934;52.752;6.964;2024-03-02T11:55:43;14.10;;;12.77;;
39218;SDS011;24934;52.752;6.964;2024-03-02T11:58:13;14.27;;;13.07;;
39218;SDS011;24934;52.752;6.964;2024-03-02T12:00:42;13.63;;;12.52;;
39218;SDS011;24934;52.752;6.964;2024-03-02T12:03:09;12.50;;;11.45;;
39218;SDS011;24934;52.752;6.964;2024-03-02T12:05:35;14.55;;;13.32;;
39218;SDS011;24934;52.752;6.964;2024-03-02T12:08:02;13.95;;;12.68;;
39218;SDS011;24934;52.752;6.964;2024-03-02T12:10:29;13.10;;;12.00;;
39218;SDS011;24934;52.752;6.964;2024-03-02T12:12:58;14.77;;;13.57;;
39218;SDS011;24934;52.752;6.964;2024-03-02T12:15:25;13.88;;;12.70;;
39218;SDS011;24934;52.752;6.964;2024-03-02T12:17:55;14.27;;;12.88;;
39218;SDS011;24934;52.752;6.964;2024-03-02T12:20:22;13.60;;;12.50;;
39218;SDS011;24934;52.752;6.964;2024-03-02T12:22:49;13.40;;;12.38;;
39218;SDS011;24934;52.752;6.964;2024-03-02T12:25:15;13.05;;;12.02;;
39218;SDS011;24934;52.752;6.964;2024-03-02T12:27:42;14.52;;;13.32;;
39218;SDS011;24934;52.752;6.964;2024-03-02T12:30:08;13.55;;;12.45;;
39218;SDS011;24934;52.752;6.964;2024-03-02T12:32:36;13.18;;;12.13;;
39218;SDS011;24934;52.752;6.964;2024-03-02T12:35:05;13.38;;;12.20;;
39218;SDS011;24934;52.752;6.964;2024-03-02T12:37:41;13.43;;;12.40;;
39218;SDS011;24934;52.752;6.964;2024-03-02T12:40:09;13.70;;;12.68;;
39218;SDS011;24934;52.752;6.964;2024-03-02T12:42:38;13.48;;;12.43;;
39218;SDS011;24934;52.752;6.964;2024-03-02T12:45:05;14.20;;;12.98;;
39218;SDS011;24934;52.752;6.964;2024-03-02T12:47:34;12.90;;;12.00;;
39218;SDS011;24934;52.752;6.964;2024-03-02T12:50:00;13.85;;;11.82;;
39218;SDS011;24934;52.752;6.964;2024-03-02T12:52:31;12.60;;;11.52;;
39218;SDS011;24934;52.752;6.964;2024-03-02T12:55:31;12.80;;;11.80;;
39218;SDS011;24934;52.752;6.964;2024-03-02T12:58:21;13.20;;;12.10;;
39218;SDS011;24934;52.752;6.964;2024-03-02T13:00:47;12.70;;;11.70;;
39218;SDS011;24934;52.752;6.964;2024-03-02T13:03:20;13.00;;;11.98;;
39218;SDS011;24934;52.752;6.964;2024-03-02T13:05:56;13.38;;;12.27;;
39218;SDS011;24934;52.752;6.964;2024-03-02T13:08:22;13.90;;;12.80;;
39218;SDS011;24934;52.752;6.964;2024-03-02T13:10:48;13.95;;;12.73;;
39218;SDS011;24934;52.752;6.964;2024-03-02T13:13:14;12.93;;;11.77;;
39218;SDS011;24934;52.752;6.964;2024-03-02T13:15:41;13.38;;;12.30;;
39218;SDS011;24934;52.752;6.964;2024-03-02T13:18:07;13.50;;;12.50;;
39218;SDS011;24934;52.752;6.964;2024-03-02T13:20:34;13.43;;;12.43;;
39218;SDS011;24934;52.752;6.964;2024-03-02T13:23:01;13.70;;;12.60;;
39218;SDS011;24934;52.752;6.964;2024-03-02T13:25:27;14.00;;;12.90;;
39218;SDS011;24934;52.752;6.964;2024-03-02T13:27:52;13.50;;;12.40;;
39218;SDS011;24934;52.752;6.964;2024-03-02T13:30:19;12.70;;;11.70;;
39218;SDS011;24934;52.752;6.964;2024-03-02T13:32:45;14.38;;;13.18;;
39218;SDS011;24934;52.752;6.964;2024-03-02T13:35:11;13.00;;;12.02;;
39218;SDS011;24934;52.752;6.964;2024-03-02T13:37:37;13.07;;;12.07;;
39218;SDS011;24934;52.752;6.964;2024-03-02T13:40:03;13.77;;;12.60;;
39218;SDS011;24934;52.752;6.964;2024-03-02T13:42:30;13.70;;;12.52;;
39218;SDS011;24934;52.752;6.964;2024-03-02T13:44:56;14.20;;;13.10;;
39218;SDS011;24934;52.752;6.964;2024-03-02T13:47:22;14.55;;;13.45;;
39218;SDS011;24934;52.752;6.964;2024-03-02T13:49:48;13.80;;;12.70;;
39218;SDS011;24934;52.752;6.964;2024-03-02T13:52:14;13.85;;;12.75;;
39218;SDS011;24934;52.752;6.964;2024-03-02T13:54:44;12.70;;;11.80;;
39218;SDS011;24934;52.752;6.964;2024-03-02T13:57:10;13.10;;;12.00;;
39218;SDS011;24934;52.752;6.964;2024-03-02T13:59:37;14.02;;;12.82;;
39218;SDS011;24934;52.752;6.964;2024-03-02T14:02:06;14.38;;;13.07;;
39218;SDS011;24934;52.752;6.964;2024-03-02T14:04:33;13.32;;;12.30;;
39218;SDS011;24934;52.752;6.964;2024-03-02T14:07:00;12.93;;;11.93;;
39218;SDS011;24934;52.752;6.964;2024-03-02T14:09:26;13.75;;;12.55;;
39218;SDS011;24934;52.752;6.964;2024-03-02T14:11:52;12.45;;;11.52;;
39218;SDS011;24934;52.752;6.964;2024-03-02T14:14:18;13.65;;;12.32;;
39218;SDS011;24934;52.752;6.964;2024-03-02T14:16:44;13.35;;;12.15;;
39218;SDS011;24934;52.752;6.964;2024-03-02T14:19:11;12.80;;;11.65;;
39218;SDS011;24934;52.752;6.964;2024-03-02T14:21:37;13.43;;;12.32;;
39218;SDS011;24934;52.752;6.964;2024-03-02T14:24:03;13.25;;;12.10;;
39218;SDS011;24934;52.752;6.964;2024-03-02T14:26:29;13.90;;;12.70;;